sensor_id;sensor_type;location;lat;lon;timestamp;P1;durP1;ratioP1;P2;durP2;ratioP2
26977;SDS011;56314;48.088;11.642;2023-03-01T00:01:08;31.90;;;18.15;;
26977;SDS011;56314;48.088;11.642;2023-03-01T00:03:36;31.17;;;18.35;;
26977;SDS011;56314;48.088;11.642;2023-03-01T00:06:02;31.48;;;18.17;;
26977;SDS011;56314;48.088;11.642;2023-03-01T00:08:28;29.45;;;18.27;;
26977;SDS011;56314;48.088;11.642;2023-03-01T00:11:02;28.48;;;18.38;;
26977;SDS011;56314;48.088;11.642;2023-03-01T00:13:27;28.65;;;18.02;;
26977;SDS011;56314;48.088;11.642;2023-03-01T00:15:52;32.95;;;18.48;;
26977;SDS011;56314;48.088;11.642;2023-03-01T00:18:18;31.67;;;19.30;;
26977;SDS011;56314;48.088;11.642;2023-03-01T00:20:49;32.20;;;17.33;;
26977;SDS011;56314;48.088;11.642;2023-03-01T00:23:19;37.15;;;20.17;;
26977;SDS011;56314;48.088;11.642;2023-03-01T00:25:45;28.63;;;17.80;;
26977;SDS011;56314;48.088;11.642;2023-03-01T00:28:10;34.10;;;19.20;;
26977;SDS011;56314;48.088;11.642;2023-03-01T00:30:35;38.10;;;19.65;;
26977;SDS011;56314;48.088;11.642;2023-03-01T00:33:01;30.42;;;18.63;;
26977;SDS011;56314;48.088;11.642;2023-03-01T00:35:26;26.90;;;16.92;;
26977;SDS011;56314;48.088;11.642;2023-03-01T00:37:51;30.17;;;17.08;;
26977;SDS011;56314;48.088;11.642;2023-03-01T00:40:23;29.83;;;18.15;;
26977;SDS011;56314;48.088;11.642;2023-03-01T00:42:49;32.05;;;18.92;;
26977;SDS011;56314;48.088;11.642;2023-03-01T00:45:14;32.03;;;17.85;;
26977;SDS011;56314;48.088;11.642;2023-03-01T00:47:40;34.05;;;18.88;;
26977;SDS011;56314;48.088;11.642;2023-03-01T00:50:05;31.20;;;17.83;;
26977;SDS011;56314;48.088;11.642;2023-03-01T00:52:31;33.72;;;19.42;;
26977;SDS011;56314;48.088;11.642;2023-03-01T00:54:56;32.97;;;18.77;;
26977;SDS011;56314;48.088;11.642;2023-03-01T00:57:22;30.95;;;19.75;;
26977;SDS011;56314;48.088;11.642;2023-03-01T00:59:48;31.40;;;18.38;;
26977;SDS011;56314;48.088;11.642;2023-03-01T01:02:13;32.80;;;18.77;;
26977;SDS011;56314;48.088;11.642;2023-03-01T01:04:39;33.88;;;18.90;;
26977;SDS011;56314;48.088;11.642;2023-03-01T01:07:04;31.88;;;19.50;;
26977;SDS011;56314;48.088;11.642;2023-03-01T01:09:30;28.83;;;18.77;;
26977;SDS011;56314;48.088;11.642;2023-03-01T01:11:55;31.30;;;18.77;;
26977;SDS011;56314;48.088;11.642;2023-03-01T01:14:21;29.52;;;20.00;;
26977;SDS011;56314;48.088;11.642;2023-03-01T01:16:46;30.48;;;19.48;;
26977;SDS011;56314;48.088;11.642;2023-03-01T01:19:12;34.55;;;19.52;;
26977;SDS011;56314;48.088;11.642;2023-03-01T01:21:38;34.97;;;17.88;;
26977;SDS011;56314;48.088;11.642;2023-03-01T01:24:04;31.52;;;17.67;;
26977;SDS011;56314;48.088;11.642;2023-03-01T01:26:32;33.13;;;18.88;;
26977;SDS011;56314;48.088;11.642;2023-03-01T01:28:59;31.33;;;18.92;;
26977;SDS011;56314;48.088;11.642;2023-03-01T01:31:25;32.13;;;18.95;;
26977;SDS011;56314;48.088;11.642;2023-03-01T01:33:53;32.70;;;18.83;;
26977;SDS011;56314;48.088;11.642;2023-03-01T01:36:20;35.22;;;19.08;;
26977;SDS011;56314;48.088;11.642;2023-03-01T01:38:46;34.22;;;19.05;;
26977;SDS011;56314;48.088;11.642;2023-03-01T01:41:12;30.48;;;19.13;;
26977;SDS011;56314;48.088;11.642;2023-03-01T01:43:45;29.58;;;17.75;;
26977;SDS011;56314;48.088;11.642;2023-03-01T01:48:48;30.60;;;18.38;;
26977;SDS011;56314;48.088;11.642;2023-03-01T01:51:22;29.92;;;17.83;;
26977;SDS011;56314;48.088;11.642;2023-03-01T01:53:57;32.80;;;19.85;;
26977;SDS011;56314;48.088;11.642;2023-03-01T01:56:25;32.13;;;19.03;;
26977;SDS011;56314;48.088;11.642;2023-03-01T01:58:53;34.20;;;17.67;;
26977;SDS011;56314;48.088;11.642;2023-03-01T02:01:19;31.63;;;18.45;;
26977;SDS011;56314;48.088;11.642;2023-03-01T02:03:45;27.15;;;17.45;;
26977;SDS011;56314;48.088;11.642;2023-03-01T02:06:12;32.45;;;19.20;;
26977;SDS011;56314;48.088;11.642;2023-03-01T02:08:44;29.80;;;17.92;;
26977;SDS011;56314;48.088;11.642;2023-03-01T02:11:13;33.15;;;19.45;;
26977;SDS011;56314;48.088;11.642;2023-03-01T02:13:42;32.03;;;18.98;;
26977;SDS011;56314;48.088;11.642;2023-03-01T02:16:08;33.20;;;19.02;;
26977;SDS011;56314;48.088;11.642;2023-03-01T02:18:36;29.80;;;19.08;;
26977;SDS011;56314;48.088;11.642;2023-03-01T02:21:05;35.95;;;19.60;;
26977;SDS011;56314;48.088;11.642;2023-03-01T02:23:42;31.02;;;17.67;;
26977;SDS011;56314;48.088;11.642;2023-03-01T02:26:17;33.80;;;19.38;;
26977;SDS011;56314;48.088;11.642;2023-03-01T02:28:49;31.05;;;18.63;;
26977;SDS011;56314;48.088;11.642;2023-03-01T02:31:16;34.90;;;19.95;;
26977;SDS011;56314;48.088;11.642;2023-03-01T02:34:03;30.33;;;18.35;;
26977;SDS011;56314;48.088;11.642;2023-03-01T02:36:32;30.90;;;19.10;;
26977;SDS011;56314;48.088;11.642;2023-03-01T02:39:02;32.83;;;18.75;;
26977;SDS011;56314;48.088;11.642;2023-03-01T02:41:32;32.15;;;19.20;;
26977;SDS011;56314;48.088;11.642;2023-03-01T02:44:02;31.88;;;20.35;;
26977;SDS011;56314;48.088;11.642;2023-03-01T02:46:28;32.28;;;19.38;;
26977;SDS011;56314;48.088;11.642;2023-03-01T02:48:55;30.10;;;18.33;;
26977;SDS011;56314;48.088;11.642;2023-03-01T02:56:40;31.92;;;18.88;;
26977;SDS011;56314;48.088;11.642;2023-03-01T02:59:05;29.77;;;18.77;;
26977;SDS011;56314;48.088;11.642;2023-03-01T03:01:31;31.42;;;19.08;;
26977;SDS011;56314;48.088;11.642;2023-03-01T03:04:06;30.90;;;19.42;;
26977;SDS011;56314;48.088;11.642;2023-03-01T03:06:34;32.47;;;18.63;;
26977;SDS011;56314;48.088;11.642;2023-03-01T03:09:00;32.10;;;18.33;;
26977;SDS011;56314;48.088;11.642;2023-03-01T03:11:26;32.47;;;19.67;;
26977;SDS011;56314;48.088;11.642;2023-03-01T03:13:51;27.35;;;17.52;;
26977;SDS011;56314;48.088;11.642;2023-03-01T03:16:17;34.60;;;18.85;;
26977;SDS011;56314;48.088;11.642;2023-03-01T03:18:43;33.10;;;20.13;;
26977;SDS011;56314;48.088;11.642;2023-03-01T03:21:09;33.40;;;19.20;;
26977;SDS011;56314;48.088;11.642;2023-03-01T03:23:36;30.80;;;18.83;;
26977;SDS011;56314;48.088;11.642;2023-03-01T03:26:02;31.42;;;19.98;;
26977;SDS011;56314;48.088;11.642;2023-03-01T03:28:29;30.77;;;19.20;;
26977;SDS011;56314;48.088;11.642;2023-03-01T03:30:55;35.78;;;20.15;;
26977;SDS011;56314;48.088;11.642;2023-03-01T03:33:21;34.20;;;19.98;;
26977;SDS011;56314;48.088;11.642;2023-03-01T03:35:47;32.42;;;20.98;;
26977;SDS011;56314;48.088;11.642;2023-03-01T03:38:14;27.88;;;18.20;;
26977;SDS011;56314;48.088;11.642;2023-03-01T03:40:45;31.40;;;17.70;;
26977;SDS011;56314;48.088;11.642;2023-03-01T03:43:13;32.17;;;20.17;;
26977;SDS011;56314;48.088;11.642;2023-03-01T03:45:40;33.65;;;19.00;;
26977;SDS011;56314;48.088;11.642;2023-03-01T03:48:06;34.05;;;20.13;;
26977;SDS011;56314;48.088;11.642;2023-03-01T03:50:34;36.30;;;20.50;;
26977;SDS011;56314;48.088;11.642;2023-03-01T03:53:00;35.60;;;20.60;;
26977;SDS011;56314;48.088;11.642;2023-03-01T03:55:26;38.53;;;20.95;;
26977;SDS011;56314;48.088;11.642;2023-03-01T03:57:55;31.58;;;19.20;;
26977;SDS011;56314;48.088;11.642;2023-03-01T04:00:23;32.42;;;20.08;;
26977;SDS011;56314;48.088;11.642;2023-03-01T04:02:49;34.95;;;19.90;;
26977;SDS011;56314;48.088;11.642;2023-03-01T04:05:16;36.13;;;20.13;;
26977;SDS011;56314;48.088;11.642;2023-03-01T04:07:43;35.40;;;20.27;;
26977;SDS011;56314;48.088;11.642;2023-03-01T04:10:14;29.88;;;19.15;;
26977;SDS011;56314;48.088;11.642;2023-03-01T04:12:41;35.00;;;19.80;;
26977;SDS011;56314;48.088;11.642;2023-03-01T04:15:08;37.45;;;20.23;;
26977;SDS011;56314;48.088;11.642;2023-03-01T04:17:44;36.58;;;19.17;;
26977;SDS011;56314;48.088;11.642;2023-03-01T04:20:12;32.97;;;20.80;;
26977;SDS011;56314;48.088;11.642;2023-03-01T04:22:42;32.83;;;19.92;;
26977;SDS011;56314;48.088;11.642;2023-03-01T04:25:08;34.63;;;19.27;;
26977;SDS011;56314;48.088;11.642;2023-03-01T04:27:34;32.28;;;18.88;;
26977;SDS011;56314;48.088;11.642;2023-03-01T04:30:01;34.10;;;19.50;;
26977;SDS011;56314;48.088;11.642;2023-03-01T04:32:28;35.78;;;19.42;;
26977;SDS011;56314;48.088;11.642;2023-03-01T04:34:53;42.92;;;21.20;;
26977;SDS011;56314;48.088;11.642;2023-03-01T04:37:19;38.22;;;19.45;;
26977;SDS011;56314;48.088;11.642;2023-03-01T04:39:44;36.08;;;20.58;;
26977;SDS011;56314;48.088;11.642;2023-03-01T04:42:12;36.58;;;19.85;;
26977;SDS011;56314;48.088;11.642;2023-03-01T04:44:38;35.08;;;20.15;;
26977;SDS011;56314;48.088;11.642;2023-03-01T04:47:04;34.42;;;20.15;;
26977;SDS011;56314;48.088;11.642;2023-03-01T04:49:29;35.90;;;20.42;;
26977;SDS011;56314;48.088;11.642;2023-03-01T04:51:54;37.55;;;20.80;;
26977;SDS011;56314;48.088;11.642;2023-03-01T04:54:21;32.38;;;19.60;;
26977;SDS011;56314;48.088;11.642;2023-03-01T04:56:46;35.30;;;19.98;;
26977;SDS011;56314;48.088;11.642;2023-03-01T04:59:11;35.88;;;20.33;;
26977;SDS011;56314;48.088;11.642;2023-03-01T05:01:37;38.53;;;20.63;;
26977;SDS011;56314;48.088;11.642;2023-03-01T05:04:03;34.35;;;20.20;;
26977;SDS011;56314;48.088;11.642;2023-03-01T05:06:30;32.08;;;20.25;;
26977;SDS011;56314;48.088;11.642;2023-03-01T05:08:55;37.28;;;20.55;;
26977;SDS011;56314;48.088;11.642;2023-03-01T05:11:21;39.33;;;21.48;;
26977;SDS011;56314;48.088;11.642;2023-03-01T05:13:46;40.28;;;21.25;;
26977;SDS011;56314;48.088;11.642;2023-03-01T05:16:11;30.50;;;18.05;;
26977;SDS011;56314;48.088;11.642;2023-03-01T05:18:37;36.50;;;20.63;;
26977;SDS011;56314;48.088;11.642;2023-03-01T05:21:04;35.92;;;19.95;;
26977;SDS011;56314;48.088;11.642;2023-03-01T05:23:36;33.75;;;20.02;;
26977;SDS011;56314;48.088;11.642;2023-03-01T05:26:02;36.30;;;20.50;;
26977;SDS011;56314;48.088;11.642;2023-03-01T05:28:29;36.85;;;20.85;;
26977;SDS011;56314;48.088;11.642;2023-03-01T05:30:55;33.72;;;20.52;;
26977;SDS011;56314;48.088;11.642;2023-03-01T05:33:21;32.08;;;19.83;;
26977;SDS011;56314;48.088;11.642;2023-03-01T05:35:47;34.95;;;20.98;;
26977;SDS011;56314;48.088;11.642;2023-03-01T05:38:13;38.42;;;20.77;;
26977;SDS011;56314;48.088;11.642;2023-03-01T05:40:40;36.13;;;20.45;;
26977;SDS011;56314;48.088;11.642;2023-03-01T05:43:09;36.58;;;21.13;;
26977;SDS011;56314;48.088;11.642;2023-03-01T05:45:36;36.58;;;21.27;;
26977;SDS011;56314;48.088;11.642;2023-03-01T05:48:02;38.88;;;20.63;;
26977;SDS011;56314;48.088;11.642;2023-03-01T05:50:28;35.90;;;20.77;;
26977;SDS011;56314;48.088;11.642;2023-03-01T05:55:25;38.63;;;20.35;;
26977;SDS011;56314;48.088;11.642;2023-03-01T05:57:50;35.90;;;20.42;;
26977;SDS011;56314;48.088;11.642;2023-03-01T06:00:16;36.55;;;21.05;;
26977;SDS011;56314;48.088;11.642;2023-03-01T06:02:43;40.90;;;21.23;;
26977;SDS011;56314;48.088;11.642;2023-03-01T06:05:10;35.05;;;20.40;;
26977;SDS011;56314;48.088;11.642;2023-03-01T06:07:36;34.05;;;19.92;;
26977;SDS011;56314;48.088;11.642;2023-03-01T06:10:02;36.08;;;20.13;;
26977;SDS011;56314;48.088;11.642;2023-03-01T06:12:30;35.17;;;21.10;;
26977;SDS011;56314;48.088;11.642;2023-03-01T06:14:57;39.13;;;20.00;;
26977;SDS011;56314;48.088;11.642;2023-03-01T06:17:23;36.58;;;20.92;;
26977;SDS011;56314;48.088;11.642;2023-03-01T06:19:48;35.50;;;20.55;;
26977;SDS011;56314;48.088;11.642;2023-03-01T06:22:14;35.20;;;20.88;;
26977;SDS011;56314;48.088;11.642;2023-03-01T06:24:39;35.63;;;21.13;;
26977;SDS011;56314;48.088;11.642;2023-03-01T06:27:04;35.22;;;20.83;;
26977;SDS011;56314;48.088;11.642;2023-03-01T06:29:30;39.50;;;20.80;;
26977;SDS011;56314;48.088;11.642;2023-03-01T06:31:55;36.30;;;22.10;;
26977;SDS011;56314;48.088;11.642;2023-03-01T06:34:20;40.65;;;21.60;;
26977;SDS011;56314;48.088;11.642;2023-03-01T06:36:46;38.40;;;21.17;;
26977;SDS011;56314;48.088;11.642;2023-03-01T06:39:12;36.47;;;20.65;;
26977;SDS011;56314;48.088;11.642;2023-03-01T06:41:37;37.03;;;20.27;;
26977;SDS011;56314;48.088;11.642;2023-03-01T06:44:02;40.67;;;20.20;;
26977;SDS011;56314;48.088;11.642;2023-03-01T06:46:28;34.55;;;19.05;;
26977;SDS011;56314;48.088;11.642;2023-03-01T06:48:53;37.03;;;19.92;;
26977;SDS011;56314;48.088;11.642;2023-03-01T06:51:18;35.97;;;20.77;;
26977;SDS011;56314;48.088;11.642;2023-03-01T06:53:45;37.13;;;21.08;;
26977;SDS011;56314;48.088;11.642;2023-03-01T06:56:11;45.65;;;21.33;;
26977;SDS011;56314;48.088;11.642;2023-03-01T06:58:36;36.30;;;20.30;;
26977;SDS011;56314;48.088;11.642;2023-03-01T07:01:05;41.33;;;22.65;;
26977;SDS011;56314;48.088;11.642;2023-03-01T07:03:31;42.70;;;22.30;;
26977;SDS011;56314;48.088;11.642;2023-03-01T07:05:56;40.75;;;21.65;;
26977;SDS011;56314;48.088;11.642;2023-03-01T07:08:22;40.75;;;20.60;;
26977;SDS011;56314;48.088;11.642;2023-03-01T07:10:47;36.80;;;20.38;;
26977;SDS011;56314;48.088;11.642;2023-03-01T07:13:12;36.47;;;20.60;;
26977;SDS011;56314;48.088;11.642;2023-03-01T07:15:39;38.80;;;20.52;;
26977;SDS011;56314;48.088;11.642;2023-03-01T07:18:05;40.17;;;21.45;;
26977;SDS011;56314;48.088;11.642;2023-03-01T07:20:30;38.63;;;20.88;;
26977;SDS011;56314;48.088;11.642;2023-03-01T07:22:55;37.50;;;20.55;;
26977;SDS011;56314;48.088;11.642;2023-03-01T07:25:23;37.60;;;20.98;;
26977;SDS011;56314;48.088;11.642;2023-03-01T07:27:50;36.28;;;20.27;;
26977;SDS011;56314;48.088;11.642;2023-03-01T07:30:16;38.33;;;21.30;;
26977;SDS011;56314;48.088;11.642;2023-03-01T07:32:41;35.15;;;20.52;;
26977;SDS011;56314;48.088;11.642;2023-03-01T07:35:07;36.80;;;20.33;;
26977;SDS011;56314;48.088;11.642;2023-03-01T07:37:32;35.28;;;20.40;;
26977;SDS011;56314;48.088;11.642;2023-03-01T07:39:58;40.53;;;21.08;;
26977;SDS011;56314;48.088;11.642;2023-03-01T07:42:23;42.03;;;22.95;;
26977;SDS011;56314;48.088;11.642;2023-03-01T07:44:48;36.42;;;20.58;;
26977;SDS011;56314;48.088;11.642;2023-03-01T07:47:14;36.53;;;20.85;;
26977;SDS011;56314;48.088;11.642;2023-03-01T07:49:39;33.50;;;20.30;;
26977;SDS011;56314;48.088;11.642;2023-03-01T07:52:05;37.10;;;20.85;;
26977;SDS011;56314;48.088;11.642;2023-03-01T07:54:30;35.53;;;20.60;;
26977;SDS011;56314;48.088;11.642;2023-03-01T07:56:56;43.83;;;21.23;;
26977;SDS011;56314;48.088;11.642;2023-03-01T07:59:21;38.17;;;21.15;;
26977;SDS011;56314;48.088;11.642;2023-03-01T08:01:48;38.88;;;21.50;;
26977;SDS011;56314;48.088;11.642;2023-03-01T08:04:14;41.95;;;22.02;;
26977;SDS011;56314;48.088;11.642;2023-03-01T08:06:39;37.33;;;19.52;;
26977;SDS011;56314;48.088;11.642;2023-03-01T08:09:04;36.95;;;20.95;;
26977;SDS011;56314;48.088;11.642;2023-03-01T08:11:30;37.92;;;20.00;;
26977;SDS011;56314;48.088;11.642;2023-03-01T08:13:55;37.33;;;21.08;;
26977;SDS011;56314;48.088;11.642;2023-03-01T08:16:22;39.95;;;22.30;;
26977;SDS011;56314;48.088;11.642;2023-03-01T08:18:48;39.67;;;21.13;;
26977;SDS011;56314;48.088;11.642;2023-03-01T08:21:14;39.50;;;20.73;;
26977;SDS011;56314;48.088;11.642;2023-03-01T08:23:41;39.58;;;20.50;;
26977;SDS011;56314;48.088;11.642;2023-03-01T08:26:09;41.70;;;22.30;;
26977;SDS011;56314;48.088;11.642;2023-03-01T08:28:37;42.28;;;22.42;;
26977;SDS011;56314;48.088;11.642;2023-03-01T08:31:02;37.95;;;21.88;;
26977;SDS011;56314;48.088;11.642;2023-03-01T08:33:37;39.25;;;21.50;;
26977;SDS011;56314;48.088;11.642;2023-03-01T08:36:03;35.75;;;21.35;;
26977;SDS011;56314;48.088;11.642;2023-03-01T08:38:32;36.35;;;20.50;;
26977;SDS011;56314;48.088;11.642;2023-03-01T08:41:01;37.80;;;22.02;;
26977;SDS011;56314;48.088;11.642;2023-03-01T08:43:27;38.50;;;22.70;;
26977;SDS011;56314;48.088;11.642;2023-03-01T08:45:53;45.63;;;22.70;;
26977;SDS011;56314;48.088;11.642;2023-03-01T08:48:18;36.38;;;20.08;;
26977;SDS011;56314;48.088;11.642;2023-03-01T08:50:43;34.70;;;20.55;;
26977;SDS011;56314;48.088;11.642;2023-03-01T08:53:09;37.35;;;21.38;;
26977;SDS011;56314;48.088;11.642;2023-03-01T08:55:34;38.25;;;21.27;;
26977;SDS011;56314;48.088;11.642;2023-03-01T08:57:59;40.65;;;22.13;;
26977;SDS011;56314;48.088;11.642;2023-03-01T09:00:25;38.90;;;21.10;;
26977;SDS011;56314;48.088;11.642;2023-03-01T09:02:50;42.33;;;21.48;;
26977;SDS011;56314;48.088;11.642;2023-03-01T09:05:18;38.47;;;21.85;;
26977;SDS011;56314;48.088;11.642;2023-03-01T09:07:44;35.20;;;22.27;;
26977;SDS011;56314;48.088;11.642;2023-03-01T09:10:09;36.53;;;21.48;;
26977;SDS011;56314;48.088;11.642;2023-03-01T09:12:35;38.22;;;21.95;;
26977;SDS011;56314;48.088;11.642;2023-03-01T09:15:00;36.50;;;21.73;;
26977;SDS011;56314;48.088;11.642;2023-03-01T09:17:25;42.15;;;23.40;;
26977;SDS011;56314;48.088;11.642;2023-03-01T09:19:51;35.80;;;22.08;;
26977;SDS011;56314;48.088;11.642;2023-03-01T09:22:16;38.38;;;21.77;;
26977;SDS011;56314;48.088;11.642;2023-03-01T09:24:41;36.50;;;21.92;;
26977;SDS011;56314;48.088;11.642;2023-03-01T09:27:07;41.35;;;22.67;;
26977;SDS011;56314;48.088;11.642;2023-03-01T09:29:34;42.58;;;22.08;;
26977;SDS011;56314;48.088;11.642;2023-03-01T09:32:02;42.67;;;22.25;;
26977;SDS011;56314;48.088;11.642;2023-03-01T09:34:27;39.03;;;22.05;;
26977;SDS011;56314;48.088;11.642;2023-03-01T09:36:53;44.13;;;23.35;;
26977;SDS011;56314;48.088;11.642;2023-03-01T09:39:18;37.63;;;21.27;;
26977;SDS011;56314;48.088;11.642;2023-03-01T09:41:59;43.42;;;23.60;;
26977;SDS011;56314;48.088;11.642;2023-03-01T09:52:50;38.88;;;21.45;;
26977;SDS011;56314;48.088;11.642;2023-03-01T09:55:37;38.42;;;21.45;;
26977;SDS011;56314;48.088;11.642;2023-03-01T10:01:14;39.95;;;22.90;;
26977;SDS011;56314;48.088;11.642;2023-03-01T10:04:00;40.22;;;22.83;;
26977;SDS011;56314;48.088;11.642;2023-03-01T10:06:28;37.45;;;21.15;;
26977;SDS011;56314;48.088;11.642;2023-03-01T10:08:58;39.60;;;21.33;;
26977;SDS011;56314;48.088;11.642;2023-03-01T10:11:31;42.45;;;22.60;;
26977;SDS011;56314;48.088;11.642;2023-03-01T10:14:02;39.17;;;22.20;;
26977;SDS011;56314;48.088;11.642;2023-03-01T10:16:48;33.80;;;20.38;;
26977;SDS011;56314;48.088;11.642;2023-03-01T10:19:30;41.90;;;21.50;;
26977;SDS011;56314;48.088;11.642;2023-03-01T10:22:05;38.17;;;21.15;;
26977;SDS011;56314;48.088;11.642;2023-03-01T10:24:35;40.17;;;21.02;;
26977;SDS011;56314;48.088;11.642;2023-03-01T10:27:04;39.03;;;20.80;;
26977;SDS011;56314;48.088;11.642;2023-03-01T10:29:46;40.03;;;21.83;;
26977;SDS011;56314;48.088;11.642;2023-03-01T10:32:21;35.60;;;19.58;;
26977;SDS011;56314;48.088;11.642;2023-03-01T10:34:47;37.03;;;19.85;;
26977;SDS011;56314;48.088;11.642;2023-03-01T10:37:16;35.30;;;19.77;;
26977;SDS011;56314;48.088;11.642;2023-03-01T10:42:38;40.67;;;20.08;;
26977;SDS011;56314;48.088;11.642;2023-03-01T10:45:15;36.15;;;19.88;;
26977;SDS011;56314;48.088;11.642;2023-03-01T10:50:38;32.25;;;18.70;;
26977;SDS011;56314;48.088;11.642;2023-03-01T10:53:10;33.40;;;19.33;;
26977;SDS011;56314;48.088;11.642;2023-03-01T10:55:44;33.22;;;17.85;;
26977;SDS011;56314;48.088;11.642;2023-03-01T10:58:19;34.03;;;19.88;;
26977;SDS011;56314;48.088;11.642;2023-03-01T11:00:48;30.13;;;18.92;;
26977;SDS011;56314;48.088;11.642;2023-03-01T11:03:19;32.65;;;20.13;;
26977;SDS011;56314;48.088;11.642;2023-03-01T11:11:06;34.47;;;20.38;;
26977;SDS011;56314;48.088;11.642;2023-03-01T11:13:53;31.13;;;19.50;;
26977;SDS011;56314;48.088;11.642;2023-03-01T11:17:23;34.88;;;20.45;;
26977;SDS011;56314;48.088;11.642;2023-03-01T11:19:37;30.98;;;20.50;;
26977;SDS011;56314;48.088;11.642;2023-03-01T11:22:05;30.27;;;19.67;;
26977;SDS011;56314;48.088;11.642;2023-03-01T11:24:53;31.48;;;20.38;;
26977;SDS011;56314;48.088;11.642;2023-03-01T11:27:33;29.85;;;20.88;;
26977;SDS011;56314;48.088;11.642;2023-03-01T11:30:03;31.00;;;21.17;;
26977;SDS011;56314;48.088;11.642;2023-03-01T11:32:42;30.85;;;20.30;;
26977;SDS011;56314;48.088;11.642;2023-03-01T11:35:25;25.27;;;16.15;;
26977;SDS011;56314;48.088;11.642;2023-03-01T11:45:45;32.30;;;20.55;;
26977;SDS011;56314;48.088;11.642;2023-03-01T11:50:50;32.53;;;20.08;;
26977;SDS011;56314;48.088;11.642;2023-03-01T12:10:20;33.28;;;21.35;;
26977;SDS011;56314;48.088;11.642;2023-03-01T12:18:49;39.40;;;23.50;;
26977;SDS011;56314;48.088;11.642;2023-03-01T12:22:29;37.63;;;22.77;;
26977;SDS011;56314;48.088;11.642;2023-03-01T12:27:27;41.72;;;24.05;;
26977;SDS011;56314;48.088;11.642;2023-03-01T12:32:45;42.33;;;23.23;;
26977;SDS011;56314;48.088;11.642;2023-03-01T12:35:22;37.65;;;22.92;;
26977;SDS011;56314;48.088;11.642;2023-03-01T12:38:02;41.05;;;24.40;;
26977;SDS011;56314;48.088;11.642;2023-03-01T12:48:53;40.17;;;23.58;;
26977;SDS011;56314;48.088;11.642;2023-03-01T12:51:31;39.13;;;22.23;;
26977;SDS011;56314;48.088;11.642;2023-03-01T12:53:59;33.58;;;22.40;;
26977;SDS011;56314;48.088;11.642;2023-03-01T12:56:32;37.22;;;23.15;;
26977;SDS011;56314;48.088;11.642;2023-03-01T13:02:14;34.03;;;21.65;;
26977;SDS011;56314;48.088;11.642;2023-03-01T13:04:57;36.30;;;22.27;;
26977;SDS011;56314;48.088;11.642;2023-03-01T13:08:36;34.55;;;23.50;;
26977;SDS011;56314;48.088;11.642;2023-03-01T13:13:29;35.90;;;22.17;;
26977;SDS011;56314;48.088;11.642;2023-03-01T13:15:56;35.30;;;23.33;;
26977;SDS011;56314;48.088;11.642;2023-03-01T13:18:36;32.35;;;21.77;;
26977;SDS011;56314;48.088;11.642;2023-03-01T13:21:02;37.08;;;23.65;;
26977;SDS011;56314;48.088;11.642;2023-03-01T13:23:30;33.85;;;22.85;;
26977;SDS011;56314;48.088;11.642;2023-03-01T13:26:12;38.67;;;23.58;;
26977;SDS011;56314;48.088;11.642;2023-03-01T13:31:56;37.95;;;22.67;;
26977;SDS011;56314;48.088;11.642;2023-03-01T13:33:56;33.67;;;22.63;;
26977;SDS011;56314;48.088;11.642;2023-03-01T13:46:52;33.72;;;21.90;;
26977;SDS011;56314;48.088;11.642;2023-03-01T13:49:28;35.38;;;23.58;;
26977;SDS011;56314;48.088;11.642;2023-03-01T13:51:58;35.45;;;23.38;;
26977;SDS011;56314;48.088;11.642;2023-03-01T13:54:30;36.35;;;23.83;;
26977;SDS011;56314;48.088;11.642;2023-03-01T13:56:58;36.30;;;24.48;;
26977;SDS011;56314;48.088;11.642;2023-03-01T13:59:25;35.20;;;22.83;;
26977;SDS011;56314;48.088;11.642;2023-03-01T14:01:52;35.88;;;23.15;;
26977;SDS011;56314;48.088;11.642;2023-03-01T14:04:23;35.65;;;23.58;;
26977;SDS011;56314;48.088;11.642;2023-03-01T14:06:51;37.10;;;24.05;;
26977;SDS011;56314;48.088;11.642;2023-03-01T14:09:33;33.20;;;23.48;;
26977;SDS011;56314;48.088;11.642;2023-03-01T14:15:02;37.35;;;24.77;;
26977;SDS011;56314;48.088;11.642;2023-03-01T14:20:00;43.00;;;25.10;;
26977;SDS011;56314;48.088;11.642;2023-03-01T14:22:34;41.92;;;25.73;;
26977;SDS011;56314;48.088;11.642;2023-03-01T14:25:03;36.67;;;22.65;;
26977;SDS011;56314;48.088;11.642;2023-03-01T14:27:41;37.05;;;24.42;;
26977;SDS011;56314;48.088;11.642;2023-03-01T14:32:57;43.58;;;22.65;;
26977;SDS011;56314;48.088;11.642;2023-03-01T14:35:28;34.67;;;23.33;;
26977;SDS011;56314;48.088;11.642;2023-03-01T14:37:59;37.28;;;24.20;;
26977;SDS011;56314;48.088;11.642;2023-03-01T14:40:26;37.17;;;22.33;;
26977;SDS011;56314;48.088;11.642;2023-03-01T14:42:53;37.53;;;23.92;;
26977;SDS011;56314;48.088;11.642;2023-03-01T14:45:22;37.95;;;23.23;;
26977;SDS011;56314;48.088;11.642;2023-03-01T14:47:50;37.88;;;22.13;;
26977;SDS011;56314;48.088;11.642;2023-03-01T14:50:20;37.00;;;22.65;;
26977;SDS011;56314;48.088;11.642;2023-03-01T14:52:54;33.78;;;20.77;;
26977;SDS011;56314;48.088;11.642;2023-03-01T14:55:38;38.33;;;21.23;;
26977;SDS011;56314;48.088;11.642;2023-03-01T14:58:11;34.58;;;22.63;;
26977;SDS011;56314;48.088;11.642;2023-03-01T15:00:49;38.10;;;22.02;;
26977;SDS011;56314;48.088;11.642;2023-03-01T15:03:31;34.85;;;22.83;;
26977;SDS011;56314;48.088;11.642;2023-03-01T15:06:00;34.25;;;21.40;;
26977;SDS011;56314;48.088;11.642;2023-03-01T15:08:27;37.45;;;21.90;;
26977;SDS011;56314;48.088;11.642;2023-03-01T15:11:15;35.97;;;22.15;;
26977;SDS011;56314;48.088;11.642;2023-03-01T15:13:47;36.78;;;22.20;;
26977;SDS011;56314;48.088;11.642;2023-03-01T15:16:14;35.05;;;22.30;;
26977;SDS011;56314;48.088;11.642;2023-03-01T15:18:52;33.90;;;21.77;;
26977;SDS011;56314;48.088;11.642;2023-03-01T15:21:21;38.17;;;24.00;;
26977;SDS011;56314;48.088;11.642;2023-03-01T15:23:57;38.20;;;21.50;;
26977;SDS011;56314;48.088;11.642;2023-03-01T15:26:45;30.88;;;19.90;;
26977;SDS011;56314;48.088;11.642;2023-03-01T15:29:20;39.00;;;22.08;;
26977;SDS011;56314;48.088;11.642;2023-03-01T15:31:58;36.97;;;20.48;;
26977;SDS011;56314;48.088;11.642;2023-03-01T15:34:38;35.28;;;20.70;;
26977;SDS011;56314;48.088;11.642;2023-03-01T15:37:05;41.25;;;22.67;;
26977;SDS011;56314;48.088;11.642;2023-03-01T15:42:07;36.38;;;23.30;;
26977;SDS011;56314;48.088;11.642;2023-03-01T15:44:38;35.47;;;21.48;;
26977;SDS011;56314;48.088;11.642;2023-03-01T15:47:23;37.55;;;21.00;;
26977;SDS011;56314;48.088;11.642;2023-03-01T15:49:51;39.50;;;21.38;;
26977;SDS011;56314;48.088;11.642;2023-03-01T15:52:28;35.00;;;21.02;;
26977;SDS011;56314;48.088;11.642;2023-03-01T15:55:02;38.83;;;21.48;;
26977;SDS011;56314;48.088;11.642;2023-03-01T15:57:30;36.78;;;21.15;;
26977;SDS011;56314;48.088;11.642;2023-03-01T15:59:55;38.33;;;21.27;;
26977;SDS011;56314;48.088;11.642;2023-03-01T16:02:24;38.60;;;21.58;;
26977;SDS011;56314;48.088;11.642;2023-03-01T16:04:50;39.30;;;20.40;;
26977;SDS011;56314;48.088;11.642;2023-03-01T16:07:16;35.15;;;20.77;;
26977;SDS011;56314;48.088;11.642;2023-03-01T16:09:41;32.15;;;20.02;;